sensor_id;sensor_type;location;lat;lon;timestamp;pressure;altitude;pressure_sealevel;temperature;humidity
54924;BME280;40825;52.270;20.984;2023-09-19T00:00:21;99908.93;;;19.28;82.80
54924;BME280;40825;52.270;20.984;2023-09-19T00:03:10;99907.34;;;19.24;83.54
54924;BME280;40825;52.270;20.984;2023-09-19T00:05:38;99903.71;;;19.22;84.03
54924;BME280;40825;52.270;20.984;2023-09-19T00:08:04;99905.27;;;19.22;84.06
54924;BME280;40825;52.270;20.984;2023-09-19T00:10:30;99905.86;;;19.22;84.01
54924;BME280;40825;52.270;20.984;2023-09-19T00:12:57;99906.67;;;19.21;83.65
54924;BME280;40825;52.270;20.984;2023-09-19T00:15:25;99903.86;;;19.21;83.73
54924;BME280;40825;52.270;20.984;2023-09-19T00:17:54;99904.02;;;19.21;84.18
54924;BME280;40825;52.270;20.984;2023-09-19T00:20:20;99902.11;;;19.19;83.93
54924;BME280;40825;52.270;20.984;2023-09-19T00:22:49;99902.60;;;19.19;84.21
54924;BME280;40825;52.270;20.984;2023-09-19T00:25:20;99903.58;;;19.18;84.69
54924;BME280;40825;52.270;20.984;2023-09-19T00:27:46;99900.96;;;19.17;84.59
54924;BME280;40825;52.270;20.984;2023-09-19T00:30:13;99901.48;;;19.16;84.68
54924;BME280;40825;52.270;20.984;2023-09-19T00:32:46;99898.52;;;19.15;84.82
54924;BME280;40825;52.270;20.984;2023-09-19T00:35:16;99896.56;;;19.15;85.34
54924;BME280;40825;52.270;20.984;2023-09-19T00:37:42;99895.70;;;19.14;85.63
54924;BME280;40825;52.270;20.984;2023-09-19T00:40:09;99893.63;;;19.13;85.38
54924;BME280;40825;52.270;20.984;2023-09-19T00:42:41;99889.61;;;19.13;85.32
54924;BME280;40825;52.270;20.984;2023-09-19T00:45:12;99884.14;;;19.12;85.43
54924;BME280;40825;52.270;20.984;2023-09-19T00:47:39;99886.85;;;19.11;85.59
54924;BME280;40825;52.270;20.984;2023-09-19T00:50:08;99884.08;;;19.09;85.72
54924;BME280;40825;52.270;20.984;2023-09-19T00:52:35;99878.38;;;19.07;85.91
54924;BME280;40825;52.270;20.984;2023-09-19T00:55:08;99878.48;;;19.06;85.57
54924;BME280;40825;52.270;20.984;2023-09-19T00:57:34;99882.14;;;19.03;85.35
54924;BME280;40825;52.270;20.984;2023-09-19T01:00:01;99887.09;;;19.01;84.64
54924;BME280;40825;52.270;20.984;2023-09-19T01:02:32;99885.07;;;19.00;85.25
54924;BME280;40825;52.270;20.984;2023-09-19T01:04:58;99882.41;;;18.98;85.91
54924;BME280;40825;52.270;20.984;2023-09-19T01:07:24;99874.95;;;18.97;86.52
54924;BME280;40825;52.270;20.984;2023-09-19T01:09:50;99869.14;;;18.95;85.58
54924;BME280;40825;52.270;20.984;2023-09-19T01:12:19;99869.78;;;18.94;85.62
54924;BME280;40825;52.270;20.984;2023-09-19T01:15:04;99867.10;;;18.91;85.89
54924;BME280;40825;52.270;20.984;2023-09-19T01:17:51;99870.08;;;18.90;86.54
54924;BME280;40825;52.270;20.984;2023-09-19T01:30:58;99847.72;;;18.73;87.62
54924;BME280;40825;52.270;20.984;2023-09-19T01:33:26;99847.95;;;18.67;87.59
54924;BME280;40825;52.270;20.984;2023-09-19T01:35:52;99846.14;;;18.63;87.52
54924;BME280;40825;52.270;20.984;2023-09-19T01:38:24;99844.33;;;18.59;87.06
54924;BME280;40825;52.270;20.984;2023-09-19T01:41:00;99841.77;;;18.58;87.53
54924;BME280;40825;52.270;20.984;2023-09-19T01:43:42;99842.18;;;18.55;87.60
54924;BME280;40825;52.270;20.984;2023-09-19T01:46:30;99841.90;;;18.54;87.86
54924;BME280;40825;52.270;20.984;2023-09-19T01:51:46;99830.13;;;18.54;89.10
54924;BME280;40825;52.270;20.984;2023-09-19T01:54:26;99828.00;;;18.53;88.68
54924;BME280;40825;52.270;20.984;2023-09-19T01:57:01;99825.95;;;18.53;88.90
54924;BME280;40825;52.270;20.984;2023-09-19T01:59:35;99815.77;;;18.51;88.43
54924;BME280;40825;52.270;20.984;2023-09-19T02:02:04;99818.15;;;18.51;88.34
54924;BME280;40825;52.270;20.984;2023-09-19T02:04:33;99820.48;;;18.53;88.50
54924;BME280;40825;52.270;20.984;2023-09-19T02:07:00;99821.70;;;18.56;87.72
54924;BME280;40825;52.270;20.984;2023-09-19T02:09:26;99823.70;;;18.55;88.63
54924;BME280;40825;52.270;20.984;2023-09-19T02:11:52;99823.09;;;18.54;88.57
54924;BME280;40825;52.270;20.984;2023-09-19T02:14:17;99823.84;;;18.52;88.79
54924;BME280;40825;52.270;20.984;2023-09-19T02:16:45;99819.71;;;18.51;89.37
54924;BME280;40825;52.270;20.984;2023-09-19T02:19:11;99817.11;;;18.50;89.54
54924;BME280;40825;52.270;20.984;2023-09-19T02:21:36;99812.56;;;18.49;89.32
54924;BME280;40825;52.270;20.984;2023-09-19T02:24:02;99811.63;;;18.47;89.54
54924;BME280;40825;52.270;20.984;2023-09-19T02:26:28;99811.02;;;18.45;89.92
54924;BME280;40825;52.270;20.984;2023-09-19T02:28:53;99809.88;;;18.42;89.71
54924;BME280;40825;52.270;20.984;2023-09-19T02:31:19;99805.91;;;18.40;89.80
54924;BME280;40825;52.270;20.984;2023-09-19T02:33:45;99800.86;;;18.39;89.60
54924;BME280;40825;52.270;20.984;2023-09-19T02:36:11;99797.19;;;18.37;90.38
54924;BME280;40825;52.270;20.984;2023-09-19T02:38:36;99791.16;;;18.34;89.46
54924;BME280;40825;52.270;20.984;2023-09-19T02:41:02;99789.84;;;18.32;90.72
54924;BME280;40825;52.270;20.984;2023-09-19T02:43:28;99785.55;;;18.29;90.87
54924;BME280;40825;52.270;20.984;2023-09-19T02:45:53;99786.34;;;18.25;90.79
54924;BME280;40825;52.270;20.984;2023-09-19T02:48:19;99786.25;;;18.23;90.66
54924;BME280;40825;52.270;20.984;2023-09-19T02:50:46;99788.02;;;18.20;91.20
54924;BME280;40825;52.270;20.984;2023-09-19T02:53:12;99789.88;;;18.18;90.95
54924;BME280;40825;52.270;20.984;2023-09-19T02:55:40;99785.34;;;18.15;91.67
54924;BME280;40825;52.270;20.984;2023-09-19T02:58:06;99783.79;;;18.12;91.44
54924;BME280;40825;52.270;20.984;2023-09-19T03:00:37;99783.23;;;18.10;91.42
54924;BME280;40825;52.270;20.984;2023-09-19T03:03:03;99782.30;;;18.09;91.29
54924;BME280;40825;52.270;20.984;2023-09-19T03:05:30;99775.02;;;18.09;90.82
54924;BME280;40825;52.270;20.984;2023-09-19T03:07:57;99779.55;;;18.09;90.60
54924;BME280;40825;52.270;20.984;2023-09-19T03:10:26;99776.90;;;18.08;90.60
54924;BME280;40825;52.270;20.984;2023-09-19T03:12:53;99775.21;;;18.08;90.66
54924;BME280;40825;52.270;20.984;2023-09-19T03:15:19;99772.15;;;18.08;90.02
54924;BME280;40825;52.270;20.984;2023-09-19T03:17:46;99769.33;;;18.09;90.75
54924;BME280;40825;52.270;20.984;2023-09-19T03:20:13;99768.40;;;18.07;91.34
54924;BME280;40825;52.270;20.984;2023-09-19T03:22:43;99771.63;;;18.05;90.89
54924;BME280;40825;52.270;20.984;2023-09-19T03:25:08;99775.70;;;18.04;91.13
54924;BME280;40825;52.270;20.984;2023-09-19T03:27:35;99774.44;;;18.03;90.35
54924;BME280;40825;52.270;20.984;2023-09-19T03:30:01;99772.60;;;18.03;90.69
54924;BME280;40825;52.270;20.984;2023-09-19T03:32:30;99768.85;;;18.04;91.03
54924;BME280;40825;52.270;20.984;2023-09-19T03:34:56;99766.08;;;18.03;91.35
54924;BME280;40825;52.270;20.984;2023-09-19T03:37:21;99766.38;;;18.01;92.05
54924;BME280;40825;52.270;20.984;2023-09-19T03:39:47;99767.22;;;18.00;92.04
54924;BME280;40825;52.270;20.984;2023-09-19T03:42:12;99764.53;;;18.00;92.06
54924;BME280;40825;52.270;20.984;2023-09-19T03:44:37;99757.05;;;18.03;92.02
54924;BME280;40825;52.270;20.984;2023-09-19T03:47:03;99751.91;;;18.06;91.48
54924;BME280;40825;52.270;20.984;2023-09-19T03:49:30;99746.65;;;18.09;91.53
54924;BME280;40825;52.270;20.984;2023-09-19T03:51:55;99745.80;;;18.12;91.18
54924;BME280;40825;52.270;20.984;2023-09-19T03:54:21;99747.90;;;18.15;90.61
54924;BME280;40825;52.270;20.984;2023-09-19T03:56:46;99745.70;;;18.18;90.44
54924;BME280;40825;52.270;20.984;2023-09-19T03:59:12;99751.44;;;18.19;90.62
54924;BME280;40825;52.270;20.984;2023-09-19T04:01:38;99753.64;;;18.19;90.52
54924;BME280;40825;52.270;20.984;2023-09-19T04:04:04;99747.92;;;18.21;90.52
54924;BME280;40825;52.270;20.984;2023-09-19T04:06:36;99744.88;;;18.23;90.35
54924;BME280;40825;52.270;20.984;2023-09-19T04:09:02;99742.29;;;18.25;90.15
54924;BME280;40825;52.270;20.984;2023-09-19T04:11:29;99736.85;;;18.27;89.91
54924;BME280;40825;52.270;20.984;2023-09-19T04:13:56;99732.66;;;18.30;89.79
54924;BME280;40825;52.270;20.984;2023-09-19T04:16:21;99727.32;;;18.32;89.94
54924;BME280;40825;52.270;20.984;2023-09-19T04:18:47;99725.44;;;18.33;89.76
54924;BME280;40825;52.270;20.984;2023-09-19T04:21:12;99729.97;;;18.32;89.66
54924;BME280;40825;52.270;20.984;2023-09-19T04:23:38;99730.61;;;18.32;89.81
54924;BME280;40825;52.270;20.984;2023-09-19T04:26:03;99729.41;;;18.31;89.75
54924;BME280;40825;52.270;20.984;2023-09-19T04:28:31;99725.78;;;18.30;90.06
54924;BME280;40825;52.270;20.984;2023-09-19T04:30:56;99720.97;;;18.28;90.06
54924;BME280;40825;52.270;20.984;2023-09-19T04:33:23;99717.56;;;18.28;90.04
54924;BME280;40825;52.270;20.984;2023-09-19T04:35:51;99717.66;;;18.28;89.92
54924;BME280;40825;52.270;20.984;2023-09-19T04:38:21;99716.11;;;18.28;89.99
54924;BME280;40825;52.270;20.984;2023-09-19T04:40:47;99714.05;;;18.27;90.29
54924;BME280;40825;52.270;20.984;2023-09-19T04:43:13;99711.89;;;18.27;89.81
54924;BME280;40825;52.270;20.984;2023-09-19T04:45:39;99715.73;;;18.29;89.85
54924;BME280;40825;52.270;20.984;2023-09-19T04:48:05;99714.55;;;18.30;89.90
54924;BME280;40825;52.270;20.984;2023-09-19T04:50:34;99712.33;;;18.31;89.88
54924;BME280;40825;52.270;20.984;2023-09-19T04:53:00;99714.61;;;18.31;89.79
54924;BME280;40825;52.270;20.984;2023-09-19T04:55:26;99711.00;;;18.33;89.73
54924;BME280;40825;52.270;20.984;2023-09-19T04:57:52;99708.00;;;18.36;89.64
54924;BME280;40825;52.270;20.984;2023-09-19T05:00:22;99711.86;;;18.40;89.49
54924;BME280;40825;52.270;20.984;2023-09-19T05:02:55;99711.13;;;18.44;89.43
54924;BME280;40825;52.270;20.984;2023-09-19T05:05:24;99704.77;;;18.48;89.36
54924;BME280;40825;52.270;20.984;2023-09-19T05:07:51;99708.49;;;18.55;89.06
54924;BME280;40825;52.270;20.984;2023-09-19T05:10:18;99703.88;;;18.62;88.91
54924;BME280;40825;52.270;20.984;2023-09-19T05:12:44;99700.83;;;18.66;88.62
54924;BME280;40825;52.270;20.984;2023-09-19T05:15:13;99700.15;;;18.71;88.56
54924;BME280;40825;52.270;20.984;2023-09-19T05:17:40;99701.86;;;18.79;88.50
54924;BME280;40825;52.270;20.984;2023-09-19T05:20:07;99701.30;;;18.86;87.90
54924;BME280;40825;52.270;20.984;2023-09-19T05:22:42;99703.11;;;18.92;87.83
54924;BME280;40825;52.270;20.984;2023-09-19T05:25:09;99702.48;;;18.98;87.57
54924;BME280;40825;52.270;20.984;2023-09-19T05:27:35;99699.60;;;19.01;87.40
54924;BME280;40825;52.270;20.984;2023-09-19T05:30:01;99704.16;;;19.02;87.36
54924;BME280;40825;52.270;20.984;2023-09-19T05:32:26;99698.63;;;19.02;87.29
54924;BME280;40825;52.270;20.984;2023-09-19T05:34:52;99701.58;;;19.00;87.26
54924;BME280;40825;52.270;20.984;2023-09-19T05:37:19;99699.93;;;18.96;87.28
54924;BME280;40825;52.270;20.984;2023-09-19T05:39:44;99698.85;;;18.95;87.38
54924;BME280;40825;52.270;20.984;2023-09-19T05:42:10;99695.45;;;18.95;87.23
54924;BME280;40825;52.270;20.984;2023-09-19T05:44:36;99700.20;;;18.96;87.27
54924;BME280;40825;52.270;20.984;2023-09-19T05:47:02;99699.96;;;19.00;87.21
54924;BME280;40825;52.270;20.984;2023-09-19T05:49:28;99695.77;;;19.05;87.11
54924;BME280;40825;52.270;20.984;2023-09-19T05:51:53;99690.98;;;19.10;86.89
54924;BME280;40825;52.270;20.984;2023-09-19T05:54:20;99689.05;;;19.17;86.93
54924;BME280;40825;52.270;20.984;2023-09-19T05:56:46;99685.92;;;19.21;86.47
54924;BME280;40825;52.270;20.984;2023-09-19T05:59:12;99684.69;;;19.24;85.79
54924;BME280;40825;52.270;20.984;2023-09-19T06:01:42;99680.16;;;19.32;86.16
54924;BME280;40825;52.270;20.984;2023-09-19T06:04:07;99696.11;;;19.44;86.14
54924;BME280;40825;52.270;20.984;2023-09-19T06:06:33;99704.78;;;19.53;85.57
54924;BME280;40825;52.270;20.984;2023-09-19T06:09:02;99708.24;;;19.61;85.34
54924;BME280;40825;52.270;20.984;2023-09-19T06:11:27;99715.20;;;19.73;85.29
54924;BME280;40825;52.270;20.984;2023-09-19T06:13:54;99715.81;;;19.88;85.21
54924;BME280;40825;52.270;20.984;2023-09-19T06:16:20;99721.31;;;20.00;84.25
54924;BME280;40825;52.270;20.984;2023-09-19T06:18:45;99723.05;;;20.05;84.38
54924;BME280;40825;52.270;20.984;2023-09-19T06:21:13;99723.59;;;20.10;84.20
54924;BME280;40825;52.270;20.984;2023-09-19T06:23:39;99727.27;;;20.09;83.06
54924;BME280;40825;52.270;20.984;2023-09-19T06:26:04;99725.86;;;20.05;82.48
54924;BME280;40825;52.270;20.984;2023-09-19T06:28:32;99724.46;;;20.00;82.56
54924;BME280;40825;52.270;20.984;2023-09-19T06:30:58;99724.67;;;19.99;82.51
54924;BME280;40825;52.270;20.984;2023-09-19T06:33:24;99727.38;;;20.01;82.53
54924;BME280;40825;52.270;20.984;2023-09-19T06:35:50;99726.67;;;20.10;82.85
54924;BME280;40825;52.270;20.984;2023-09-19T06:38:17;99732.58;;;20.17;82.62
54924;BME280;40825;52.270;20.984;2023-09-19T06:40:44;99732.47;;;20.21;82.74
54924;BME280;40825;52.270;20.984;2023-09-19T06:43:10;99734.46;;;20.23;82.01
54924;BME280;40825;52.270;20.984;2023-09-19T06:45:36;99736.53;;;20.23;81.77
54924;BME280;40825;52.270;20.984;2023-09-19T06:48:01;99735.93;;;20.32;82.20
54924;BME280;40825;52.270;20.984;2023-09-19T06:50:28;99733.96;;;20.45;81.24
54924;BME280;40825;52.270;20.984;2023-09-19T06:52:56;99735.20;;;20.54;80.79
54924;BME280;40825;52.270;20.984;2023-09-19T06:55:25;99735.13;;;20.63;80.31
54924;BME280;40825;52.270;20.984;2023-09-19T06:57:53;99740.73;;;20.70;79.31
54924;BME280;40825;52.270;20.984;2023-09-19T07:00:19;99737.48;;;20.74;79.19
54924;BME280;40825;52.270;20.984;2023-09-19T07:05:22;99742.88;;;20.92;78.27
54924;BME280;40825;52.270;20.984;2023-09-19T07:07:47;99745.58;;;20.98;79.38
54924;BME280;40825;52.270;20.984;2023-09-19T07:10:12;99750.46;;;21.08;78.62
54924;BME280;40825;52.270;20.984;2023-09-19T07:12:38;99745.64;;;21.19;78.35
54924;BME280;40825;52.270;20.984;2023-09-19T07:15:04;99747.90;;;21.25;77.82
54924;BME280;40825;52.270;20.984;2023-09-19T07:17:31;99748.27;;;21.28;76.47
54924;BME280;40825;52.270;20.984;2023-09-19T07:19:58;99756.58;;;21.40;78.19
54924;BME280;40825;52.270;20.984;2023-09-19T07:22:25;99756.10;;;21.47;77.53
54924;BME280;40825;52.270;20.984;2023-09-19T07:24:51;99763.96;;;21.50;77.05
54924;BME280;40825;52.270;20.984;2023-09-19T07:27:17;99764.66;;;21.50;76.44
54924;BME280;40825;52.270;20.984;2023-09-19T07:29:42;99761.23;;;21.51;76.42
54924;BME280;40825;52.270;20.984;2023-09-19T07:32:08;99766.26;;;21.59;76.10
54924;BME280;40825;52.270;20.984;2023-09-19T07:34:35;99769.59;;;21.66;75.41
54924;BME280;40825;52.270;20.984;2023-09-19T07:37:01;99767.38;;;21.76;75.51
54924;BME280;40825;52.270;20.984;2023-09-19T07:39:27;99771.48;;;21.92;75.11
54924;BME280;40825;52.270;20.984;2023-09-19T07:41:53;99774.85;;;22.02;74.51
54924;BME280;40825;52.270;20.984;2023-09-19T07:44:19;99778.47;;;22.07;74.35
54924;BME280;40825;52.270;20.984;2023-09-19T07:46:45;99781.36;;;22.12;74.73
54924;BME280;40825;52.270;20.984;2023-09-19T07:49:10;99785.60;;;22.18;73.83
54924;BME280;40825;52.270;20.984;2023-09-19T07:51:36;99785.20;;;22.13;72.76
54924;BME280;40825;52.270;20.984;2023-09-19T07:54:01;99791.52;;;22.11;74.06
54924;BME280;40825;52.270;20.984;2023-09-19T07:56:27;99801.34;;;22.08;74.75
54924;BME280;40825;52.270;20.984;2023-09-19T07:58:53;99799.63;;;22.04;74.51
54924;BME280;40825;52.270;20.984;2023-09-19T08:01:18;99797.66;;;21.99;74.34
54924;BME280;40825;52.270;20.984;2023-09-19T08:03:44;99796.31;;;21.96;74.51
54924;BME280;40825;52.270;20.984;2023-09-19T08:06:10;99792.58;;;21.92;74.84
54924;BME280;40825;52.270;20.984;2023-09-19T08:08:37;99787.41;;;21.93;74.82
54924;BME280;40825;52.270;20.984;2023-09-19T08:11:04;99791.28;;;21.93;74.72
54924;BME280;40825;52.270;20.984;2023-09-19T08:13:37;99798.23;;;21.91;74.89
54924;BME280;40825;52.270;20.984;2023-09-19T08:16:05;99807.05;;;21.90;74.79
54924;BME280;40825;52.270;20.984;2023-09-19T08:18:31;99808.07;;;21.93;74.79
54924;BME280;40825;52.270;20.984;2023-09-19T08:20:56;99813.52;;;21.99;74.74
54924;BME280;40825;52.270;20.984;2023-09-19T08:23:24;99812.29;;;22.03;74.81
54924;BME280;40825;52.270;20.984;2023-09-19T08:25:50;99812.33;;;22.06;74.87
54924;BME280;40825;52.270;20.984;2023-09-19T08:28:15;99811.73;;;22.07;74.64
54924;BME280;40825;52.270;20.984;2023-09-19T08:30:45;99815.04;;;22.08;74.68
54924;BME280;40825;52.270;20.984;2023-09-19T08:33:11;99816.61;;;22.08;74.41
54924;BME280;40825;52.270;20.984;2023-09-19T08:35:37;99821.83;;;22.08;74.28
54924;BME280;40825;52.270;20.984;2023-09-19T08:38:05;99823.11;;;22.11;74.15
54924;BME280;40825;52.270;20.984;2023-09-19T08:40:32;99822.38;;;22.07;74.28
54924;BME280;40825;52.270;20.984;2023-09-19T08:42:59;99821.52;;;22.06;74.42
54924;BME280;40825;52.270;20.984;2023-09-19T08:45:26;99822.98;;;21.99;74.37
54924;BME280;40825;52.270;20.984;2023-09-19T08:53:30;99818.28;;;21.58;74.83
54924;BME280;40825;52.270;20.984;2023-09-19T08:55:59;99812.84;;;21.48;75.14
54924;BME280;40825;52.270;20.984;2023-09-19T08:58:31;99812.30;;;21.49;75.23
54924;BME280;40825;52.270;20.984;2023-09-19T09:01:00;99812.70;;;21.46;75.34
54924;BME280;40825;52.270;20.984;2023-09-19T09:03:31;99813.49;;;21.38;75.46
54924;BME280;40825;52.270;20.984;2023-09-19T09:05:58;99814.61;;;21.28;75.93
54924;BME280;40825;52.270;20.984;2023-09-19T09:08:24;99816.75;;;21.25;76.59
54924;BME280;40825;52.270;20.984;2023-09-19T09:10:50;99811.98;;;21.25;76.69
54924;BME280;40825;52.270;20.984;2023-09-19T09:13:16;99813.48;;;21.25;76.86
54924;BME280;40825;52.270;20.984;2023-09-19T09:15:43;99818.64;;;21.25;76.70
54924;BME280;40825;52.270;20.984;2023-09-19T09:18:10;99823.93;;;21.18;76.80
54924;BME280;40825;52.270;20.984;2023-09-19T09:20:35;99829.06;;;21.11;77.20
54924;BME280;40825;52.270;20.984;2023-09-19T09:23:01;99840.39;;;20.97;77.64
54924;BME280;40825;52.270;20.984;2023-09-19T09:25:54;99836.77;;;20.87;77.75
54924;BME280;40825;52.270;20.984;2023-09-19T09:28:21;99843.01;;;20.83;78.10
54924;BME280;40825;52.270;20.984;2023-09-19T09:30:47;99856.29;;;20.75;78.55
54924;BME280;40825;52.270;20.984;2023-09-19T09:33:14;99872.23;;;20.65;78.58
54924;BME280;40825;52.270;20.984;2023-09-19T09:35:54;99877.60;;;20.46;79.83
54924;BME280;40825;52.270;20.984;2023-09-19T09:38:23;99873.62;;;20.27;80.96
54924;BME280;40825;52.270;20.984;2023-09-19T09:40:59;99869.43;;;20.16;81.54
54924;BME280;40825;52.270;20.984;2023-09-19T09:43:36;99866.17;;;20.06;82.38
54924;BME280;40825;52.270;20.984;2023-09-19T09:46:17;99868.67;;;19.94;83.15
54924;BME280;40825;52.270;20.984;2023-09-19T09:49:03;99879.39;;;19.79;82.69
54924;BME280;40825;52.270;20.984;2023-09-19T09:52:05;99888.92;;;19.55;84.92
54924;BME280;40825;52.270;20.984;2023-09-19T09:54:58;99895.85;;;19.41;85.11
54924;BME280;40825;52.270;20.984;2023-09-19T09:57:25;99894.55;;;19.31;85.53
54924;BME280;40825;52.270;20.984;2023-09-19T09:59:56;99890.45;;;19.26;85.00
54924;BME280;40825;52.270;20.984;2023-09-19T10:02:42;99888.66;;;19.14;87.73
54924;BME280;40825;52.270;20.984;2023-09-19T10:05:18;99883.48;;;19.03;87.17
54924;BME280;40825;52.270;20.984;2023-09-19T10:07:54;99882.01;;;18.95;87.50
54924;BME280;40825;52.270;20.984;2023-09-19T10:10:41;99878.46;;;18.90;88.83
54924;BME280;40825;52.270;20.984;2023-09-19T10:13:08;99876.48;;;18.85;87.93
54924;BME280;40825;52.270;20.984;2023-09-19T10:15:38;99883.14;;;18.79;88.71
54924;BME280;40825;52.270;20.984;2023-09-19T10:18:07;99884.84;;;18.75;89.11
54924;BME280;40825;52.270;20.984;2023-09-19T10:20:36;99887.70;;;18.74;95.42
54924;BME280;40825;52.270;20.984;2023-09-19T10:23:06;99893.69;;;18.74;94.54
54924;BME280;40825;52.270;20.984;2023-09-19T10:25:42;99894.51;;;18.74;95.49
54924;BME280;40825;52.270;20.984;2023-09-19T10:28:10;99900.58;;;18.76;97.60
54924;BME280;40825;52.270;20.984;2023-09-19T10:30:47;99901.14;;;18.77;98.23
54924;BME280;40825;52.270;20.984;2023-09-19T10:33:16;99905.39;;;18.76;98.17
54924;BME280;40825;52.270;20.984;2023-09-19T10:35:47;99903.84;;;18.77;98.85
54924;BME280;40825;52.270;20.984;2023-09-19T10:38:19;99904.09;;;18.79;98.00
54924;BME280;40825;52.270;20.984;2023-09-19T10:40:50;99905.83;;;18.83;99.65
54924;BME280;40825;52.270;20.984;2023-09-19T10:43:18;99900.18;;;18.88;100.00
54924;BME280;40825;52.270;20.984;2023-09-19T10:45:45;99896.39;;;18.93;99.75
54924;BME280;40825;52.270;20.984;2023-09-19T10:48:12;99896.91;;;19.02;98.54
54924;BME280;40825;52.270;20.984;2023-09-19T10:50:53;99897.02;;;19.10;98.23
54924;BME280;40825;52.270;20.984;2023-09-19T10:53:25;99899.82;;;19.08;99.35
54924;BME280;40825;52.270;20.984;2023-09-19T10:55:58;99903.33;;;19.06;98.49
54924;BME280;40825;52.270;20.984;2023-09-19T10:58:29;99903.60;;;19.06;99.81
54924;BME280;40825;52.270;20.984;2023-09-19T11:00:57;99905.16;;;19.08;98.99
54924;BME280;40825;52.270;20.984;2023-09-19T11:03:38;99904.48;;;19.11;99.60
54924;BME280;40825;52.270;20.984;2023-09-19T11:06:18;99903.80;;;19.14;99.10
54924;BME280;40825;52.270;20.984;2023-09-19T11:09:01;99910.71;;;19.17;98.94
54924;BME280;40825;52.270;20.984;2023-09-19T11:11:39;99909.23;;;19.15;99.51
54924;BME280;40825;52.270;20.984;2023-09-19T11:25:45;99916.13;;;19.29;100.00
54924;BME280;40825;52.270;20.984;2023-09-19T11:30:51;99910.81;;;19.46;100.00
54924;BME280;40825;52.270;20.984;2023-09-19T11:36:05;99910.16;;;19.54;100.00
54924;BME280;40825;52.270;20.984;2023-09-19T11:46:26;99918.09;;;19.50;100.00
54924;BME280;40825;52.270;20.984;2023-09-19T11:48:53;99919.09;;;19.45;100.00
54924;BME280;40825;52.270;20.984;2023-09-19T11:51:21;99919.93;;;19.40;100.00
54924;BME280;40825;52.270;20.984;2023-09-19T11:53:54;99918.21;;;19.33;100.00
54924;BME280;40825;52.270;20.984;2023-09-19T11:56:25;99923.14;;;19.34;100.00
54924;BME280;40825;52.270;20.984;2023-09-19T11:58:55;99924.83;;;19.35;100.00
54924;BME280;40825;52.270;20.984;2023-09-19T12:01:32;99926.13;;;19.34;100.00
54924;BME280;40825;52.270;20.984;2023-09-19T12:04:01;99926.50;;;19.33;100.00
54924;BME280;40825;52.270;20.984;2023-09-19T12:06:30;99931.34;;;19.38;100.00
54924;BME280;40825;52.270;20.984;2023-09-19T12:08:57;99936.05;;;19.38;100.00
54924;BME280;40825;52.270;20.984;2023-09-19T12:11:30;99937.68;;;19.39;100.00
54924;BME280;40825;52.270;20.984;2023-09-19T12:13:59;99933.44;;;19.44;100.00
54924;BME280;40825;52.270;20.984;2023-09-19T12:16:26;99935.73;;;19.47;100.00
54924;BME280;40825;52.270;20.984;2023-09-19T12:18:56;99938.18;;;19.50;100.00
54924;BME280;40825;52.270;20.984;2023-09-19T12:21:25;99943.48;;;19.51;100.00
54924;BME280;40825;52.270;20.984;2023-09-19T12:23:59;99944.33;;;19.54;100.00
54924;BME280;40825;52.270;20.984;2023-09-19T12:26:26;99949.48;;;19.56;100.00
54924;BME280;40825;52.270;20.984;2023-09-19T12:28:55;99949.03;;;19.56;100.00
54924;BME280;40825;52.270;20.984;2023-09-19T12:31:22;99949.75;;;19.58;100.00
54924;BME280;40825;52.270;20.984;2023-09-19T12:33:53;99950.67;;;19.58;100.00
54924;BME280;40825;52.270;20.984;2023-09-19T12:36:22;99948.17;;;19.57;100.00
54924;BME280;40825;52.270;20.984;2023-09-19T12:38:55;99950.88;;;19.56;100.00
54924;BME280;40825;52.270;20.984;2023-09-19T12:41:21;99948.98;;;19.57;100.00
54924;BME280;40825;52.270;20.984;2023-09-19T12:43:47;99952.71;;;19.54;100.00
54924;BME280;40825;52.270;20.984;2023-09-19T12:46:13;99951.77;;;19.51;100.00
54924;BME280;40825;52.270;20.984;2023-09-19T12:48:40;99956.33;;;19.51;100.00
54924;BME280;40825;52.270;20.984;2023-09-19T12:51:10;99953.48;;;19.48;100.00
54924;BME280;40825;52.270;20.984;2023-09-19T12:53:45;99954.41;;;19.47;100.00
54924;BME280;40825;52.270;20.984;2023-09-19T12:56:17;99953.21;;;19.46;100.00
54924;BME280;40825;52.270;20.984;2023-09-19T12:58:58;99953.41;;;19.43;100.00
54924;BME280;40825;52.270;20.984;2023-09-19T13:01:29;99955.05;;;19.46;100.00
54924;BME280;40825;52.270;20.984;2023-09-19T13:04:30;99954.24;;;19.47;100.00
54924;BME280;40825;52.270;20.984;2023-09-19T13:06:58;99954.52;;;19.47;100.00
54924;BME280;40825;52.270;20.984;2023-09-19T13:09:27;99948.77;;;19.47;100.00
54924;BME280;40825;52.270;20.984;2023-09-19T13:12:05;99947.80;;;19.48;100.00
54924;BME280;40825;52.270;20.984;2023-09-19T13:14:32;99947.17;;;19.50;100.00
54924;BME280;40825;52.270;20.984;2023-09-19T13:17:04;99948.55;;;19.53;100.00
54924;BME280;40825;52.270;20.984;2023-09-19T13:19:50;99949.67;;;19.52;100.00
54924;BME280;40825;52.270;20.984;2023-09-19T13:22:39;99949.34;;;19.51;100.00
54924;BME280;40825;52.270;20.984;2023-09-19T13:25:13;99952.38;;;19.52;100.00
54924;BME280;40825;52.270;20.984;2023-09-19T13:27:44;99955.52;;;19.53;100.00
54924;BME280;40825;52.270;20.984;2023-09-19T13:30:11;99953.08;;;19.53;100.00
54924;BME280;40825;52.270;20.984;2023-09-19T13:32:37;99952.17;;;19.55;100.00
54924;BME280;40825;52.270;20.984;2023-09-19T13:35:06;99953.65;;;19.58;100.00
54924;BME280;40825;52.270;20.984;2023-09-19T13:37:35;99956.64;;;19.60;100.00
54924;BME280;40825;52.270;20.984;2023-09-19T13:40:15;99957.05;;;19.64;100.00
54924;BME280;40825;52.270;20.984;2023-09-19T13:42:41;99959.61;;;19.66;100.00